Little London, Ohio
Current Conditions -  °F | °C
As of 8:52 PM on Friday 21 Nov 2014 (Local Time) from KMFD Reporting Station
Clear Clear  
Wind Chill:   Ceiling: Unl
Heat Index: 19°   Visibility: 10mi
Dew Point: 10°   Wind: 9mph
Humidity: 68%   Direction: 160°SSE
Pressure: 30.4"   Gusts: NA
Location:  40.8848°N, 82.6515°W
Report Text: KMFD 220152Z 16008KT 10SM CLR M07/M12 A3040 RMK AO2 SLP316 T10721122
Loading
Personal Weather Stations






























Interactive Weather Map New forecast layout! Learn more

10-Day Weather Forecast

Advertisements
Track Severe Weather on mobile